createdAt,value
2022-12-27T00:01:23.045Z,4.20
2022-12-27T00:03:51.248Z,4.20
2022-12-27T00:06:23.834Z,4.10
2022-12-27T00:08:54.400Z,4.10
2022-12-27T00:11:26.413Z,4.10
2022-12-27T00:13:54.624Z,4.20
2022-12-27T00:16:22.861Z,4.10
2022-12-27T00:18:52.298Z,4.10
2022-12-27T00:21:22.161Z,4.10
2022-12-27T00:23:55.531Z,4.20
2022-12-27T00:26:26.606Z,4.10
2022-12-27T00:28:55.761Z,4.20
2022-12-27T00:31:26.766Z,4.10
2022-12-27T00:33:57.547Z,4.10
2022-12-27T00:36:28.744Z,4.10
2022-12-27T00:39:00.152Z,4.10
2022-12-27T00:41:28.642Z,4.00
2022-12-27T00:43:57.218Z,4.00
2022-12-27T00:46:25.514Z,4.00
2022-12-27T00:48:53.846Z,4.00
2022-12-27T00:51:25.697Z,4.00
2022-12-27T00:53:55.807Z,4.00
2022-12-27T00:56:30.197Z,3.90
2022-12-27T00:59:01.215Z,3.90
2022-12-27T01:01:33.530Z,3.90
2022-12-27T01:04:02.785Z,3.90
2022-12-27T01:06:35.433Z,3.90
2022-12-27T01:09:06.792Z,3.90
2022-12-27T01:11:36.547Z,3.90
2022-12-27T01:14:06.518Z,3.90
2022-12-27T01:16:35.396Z,3.80
2022-12-27T01:19:03.957Z,3.80
2022-12-27T01:21:32.240Z,3.80
2022-12-27T01:24:00.629Z,3.90
2022-12-27T01:26:29.596Z,3.80
2022-12-27T01:28:59.195Z,3.80
2022-12-27T01:31:29.010Z,3.80
2022-12-27T01:33:59.888Z,3.80
2022-12-27T01:36:31.432Z,3.80
2022-12-27T01:39:00.363Z,3.80
2022-12-27T01:41:49.076Z,3.80
2022-12-27T01:44:52.087Z,3.80
2022-12-27T01:47:32.366Z,3.70
2022-12-27T01:50:11.251Z,3.70
2022-12-27T01:52:45.798Z,3.70
2022-12-27T01:55:23.250Z,3.80
2022-12-27T01:57:54.533Z,3.70
2022-12-27T02:00:24.320Z,3.70
2022-12-27T02:02:53.845Z,3.70
2022-12-27T02:05:25.955Z,3.70
2022-12-27T02:08:10.830Z,3.70
2022-12-27T02:10:40.672Z,3.60
2022-12-27T02:13:09.604Z,3.60
2022-12-27T02:15:39.533Z,3.50
2022-12-27T02:18:07.898Z,3.60
2022-12-27T02:20:58.351Z,3.50
2022-12-27T02:24:03.540Z,3.60
2022-12-27T02:26:52.509Z,3.60
2022-12-27T02:29:54.427Z,3.60
2022-12-27T02:32:31.003Z,3.60
2022-12-27T02:35:09.468Z,3.60
2022-12-27T02:37:45.588Z,3.50
2022-12-27T02:40:33.899Z,3.50
2022-12-27T02:43:20.372Z,3.50
2022-12-27T02:46:21.562Z,3.50
2022-12-27T02:49:12.943Z,3.50
2022-12-27T02:52:18.846Z,3.60
2022-12-27T02:55:23.172Z,3.50
2022-12-27T02:58:10.174Z,3.60
2022-12-27T03:01:06.836Z,3.50
2022-12-27T03:03:56.383Z,3.50
2022-12-27T03:06:53.745Z,3.50
2022-12-27T03:10:01.532Z,3.50
2022-12-27T03:13:07.384Z,3.50
2022-12-27T03:16:01.031Z,3.50
2022-12-27T03:19:08.636Z,3.60
2022-12-27T03:22:00.281Z,3.60
2022-12-27T03:24:51.709Z,3.50
2022-12-27T03:27:29.877Z,3.50
2022-12-27T03:30:19.125Z,3.50
2022-12-27T03:33:11.929Z,3.50
2022-12-27T03:36:09.550Z,3.60
2022-12-27T03:38:47.039Z,3.50
2022-12-27T03:41:39.972Z,3.50
2022-12-27T03:44:24.183Z,3.50
2022-12-27T03:46:58.284Z,3.50
2022-12-27T03:49:34.059Z,3.60
2022-12-27T03:52:11.843Z,3.60
2022-12-27T03:54:43.288Z,3.60
2022-12-27T03:57:15.586Z,3.70
2022-12-27T03:59:44.480Z,3.70
2022-12-27T04:02:13.375Z,3.70
2022-12-27T04:04:42.392Z,3.80
2022-12-27T04:07:14.652Z,3.80
2022-12-27T04:10:00.623Z,3.80
2022-12-27T04:12:46.603Z,3.80
2022-12-27T04:15:32.615Z,3.90
2022-12-27T04:18:18.698Z,3.90
2022-12-27T04:21:04.591Z,3.90
2022-12-27T04:23:51.903Z,3.90
2022-12-27T04:26:37.992Z,4.00
2022-12-27T04:29:23.856Z,4.00
2022-12-27T04:32:09.774Z,4.00
2022-12-27T04:34:41.002Z,4.00
2022-12-27T04:37:12.018Z,4.00
2022-12-27T04:39:41.861Z,4.10
2022-12-27T04:42:28.646Z,4.20
2022-12-27T04:45:15.520Z,4.20
2022-12-27T04:48:01.585Z,4.10
2022-12-27T04:50:50.680Z,4.10
2022-12-27T04:53:39.409Z,4.20
2022-12-27T04:56:09.156Z,4.20
2022-12-27T04:58:57.466Z,4.20
2022-12-27T05:01:43.589Z,4.20
2022-12-27T05:04:12.400Z,4.30
2022-12-27T05:06:40.756Z,4.30
2022-12-27T05:09:26.322Z,4.20
2022-12-27T05:12:13.215Z,4.20
2022-12-27T05:14:41.409Z,4.20
2022-12-27T05:17:09.648Z,4.20
2022-12-27T05:19:37.981Z,4.20
2022-12-27T05:22:23.974Z,4.20
2022-12-27T05:25:10.053Z,4.20
2022-12-27T05:27:40.312Z,4.20
2022-12-27T05:30:10.347Z,4.10
2022-12-27T05:32:38.793Z,4.10
2022-12-27T05:35:07.989Z,4.10
2022-12-27T05:37:36.286Z,4.20
2022-12-27T05:40:05.258Z,4.10
2022-12-27T05:42:33.503Z,4.10
2022-12-27T05:45:03.312Z,4.20
2022-12-27T05:47:31.600Z,4.10
2022-12-27T05:49:59.830Z,4.10
2022-12-27T05:52:28.120Z,4.00
2022-12-27T05:54:56.474Z,4.00
2022-12-27T05:57:25.910Z,4.00
2022-12-27T05:59:54.341Z,4.10
2022-12-27T06:02:24.325Z,4.10
2022-12-27T06:04:52.605Z,4.10
2022-12-27T06:07:20.850Z,4.10
2022-12-27T06:09:49.135Z,4.10
2022-12-27T06:12:17.434Z,4.10
2022-12-27T06:14:45.642Z,4.10
2022-12-27T06:17:13.941Z,4.20
2022-12-27T06:19:43.526Z,4.20
2022-12-27T06:22:11.775Z,4.10
2022-12-27T06:24:40.227Z,4.20
2022-12-27T06:27:08.456Z,4.20
2022-12-27T06:29:36.704Z,4.10
2022-12-27T06:32:05.594Z,4.10
2022-12-27T06:34:34.138Z,4.10
2022-12-27T06:37:03.840Z,4.10
2022-12-27T06:39:32.241Z,4.20
2022-12-27T06:42:00.497Z,4.20
2022-12-27T06:44:28.814Z,4.20
2022-12-27T06:46:57.085Z,4.30
2022-12-27T06:49:25.797Z,4.30
2022-12-27T06:51:59.329Z,4.20
2022-12-27T06:54:30.256Z,4.30
2022-12-27T06:56:58.482Z,4.20
2022-12-27T06:59:27.707Z,4.20
2022-12-27T07:01:56.373Z,4.30
2022-12-27T07:04:24.716Z,4.30
2022-12-27T07:06:52.961Z,4.30
2022-12-27T07:09:21.140Z,4.30
2022-12-27T07:11:50.720Z,4.40
2022-12-27T07:14:18.961Z,4.30
2022-12-27T07:16:49.539Z,4.30
2022-12-27T07:19:17.888Z,4.30
2022-12-27T07:21:46.073Z,4.40
2022-12-27T07:24:14.428Z,4.40
2022-12-27T07:26:42.646Z,4.40
2022-12-27T07:29:12.333Z,4.30
2022-12-27T07:31:41.848Z,4.20
2022-12-27T07:34:11.542Z,4.20
2022-12-27T07:36:41.230Z,4.10
2022-12-27T07:39:11.022Z,4.10
2022-12-27T07:41:39.210Z,4.10
2022-12-27T07:44:08.955Z,4.10
2022-12-27T07:46:38.542Z,4.10
2022-12-27T07:49:11.053Z,4.10
2022-12-27T07:51:42.200Z,4.10
2022-12-27T07:54:10.447Z,4.20
2022-12-27T07:56:38.601Z,4.20
2022-12-27T07:59:06.980Z,4.20
2022-12-27T08:01:58.262Z,4.10
2022-12-27T08:04:26.618Z,4.10
2022-12-27T08:07:07.383Z,4.10
2022-12-27T08:09:41.632Z,4.10
2022-12-27T08:12:10.393Z,4.10
2022-12-27T08:14:38.568Z,4.10
2022-12-27T08:17:17.191Z,4.20
2022-12-27T08:19:45.419Z,4.20
2022-12-27T08:22:13.708Z,4.20
2022-12-27T08:24:42.288Z,4.20
2022-12-27T08:27:10.875Z,4.20
2022-12-27T08:29:39.943Z,4.20
2022-12-27T08:32:09.498Z,4.20
2022-12-27T08:34:37.654Z,4.20
2022-12-27T08:37:05.905Z,4.20
2022-12-27T08:39:34.172Z,4.40
2022-12-27T08:42:02.602Z,4.30
2022-12-27T08:44:30.816Z,4.40
2022-12-27T08:46:59.433Z,4.40
2022-12-27T08:49:29.113Z,4.40
2022-12-27T08:51:58.479Z,4.40
2022-12-27T08:54:26.877Z,4.40
2022-12-27T08:56:55.062Z,4.40
2022-12-27T08:59:23.293Z,4.40
2022-12-27T09:01:51.686Z,4.50
2022-12-27T09:04:20.046Z,4.60
2022-12-27T09:06:49.669Z,4.60
2022-12-27T09:09:18.053Z,4.60
2022-12-27T09:11:46.672Z,4.60
2022-12-27T09:14:14.877Z,4.70
2022-12-27T09:16:43.185Z,4.70
2022-12-27T09:19:11.891Z,4.80
2022-12-27T09:21:43.963Z,4.80
2022-12-27T09:24:14.721Z,4.80
2022-12-27T09:26:43.531Z,4.80
2022-12-27T09:29:11.873Z,4.80
2022-12-27T09:31:40.063Z,4.90
2022-12-27T09:34:08.262Z,4.90
2022-12-27T09:36:40.616Z,5.00
2022-12-27T09:39:10.303Z,5.10
2022-12-27T09:44:55.593Z,5.10
2022-12-27T09:47:32.879Z,5.10
2022-12-27T09:50:07.537Z,5.00
2022-12-27T09:52:42.771Z,5.00
2022-12-27T09:55:21.661Z,5.10
2022-12-27T09:58:00.092Z,5.10
2022-12-27T10:00:34.206Z,5.20
2022-12-27T10:03:06.919Z,5.10
2022-12-27T10:05:39.536Z,5.20
2022-12-27T10:08:26.797Z,5.20
2022-12-27T10:11:03.560Z,5.20
2022-12-27T10:13:48.801Z,5.20
2022-12-27T10:16:32.568Z,5.20
2022-12-27T10:19:25.708Z,5.30
2022-12-27T10:22:06.494Z,5.30
2022-12-27T10:24:42.264Z,5.30
2022-12-27T10:27:16.196Z,5.40
2022-12-27T10:29:46.489Z,5.50
2022-12-27T10:32:17.463Z,5.50
2022-12-27T10:34:46.028Z,5.60
2022-12-27T10:37:16.901Z,5.50
2022-12-27T10:39:45.205Z,5.60
2022-12-27T10:42:33.347Z,5.60
2022-12-27T10:45:32.239Z,5.60
2022-12-27T10:48:18.974Z,5.50
2022-12-27T10:50:59.094Z,5.50
2022-12-27T10:53:39.396Z,5.50
2022-12-27T10:56:15.580Z,5.60
2022-12-27T10:58:50.318Z,5.60
2022-12-27T11:01:28.078Z,5.70
2022-12-27T11:04:20.080Z,5.70
2022-12-27T11:06:52.524Z,5.70
2022-12-27T11:09:34.509Z,5.80
2022-12-27T11:12:20.673Z,5.80
2022-12-27T11:15:00.701Z,5.90
2022-12-27T11:17:39.405Z,5.90
2022-12-27T11:20:22.867Z,6.00
2022-12-27T11:22:56.233Z,6.00
2022-12-27T11:25:27.803Z,6.00
2022-12-27T11:28:01.643Z,6.10
2022-12-27T11:30:34.604Z,6.10
2022-12-27T11:33:24.350Z,6.10
2022-12-27T11:35:56.906Z,6.20
2022-12-27T11:38:29.382Z,6.30
2022-12-27T11:41:04.394Z,6.30
2022-12-27T11:43:43.967Z,6.40
2022-12-27T11:46:26.386Z,6.50
2022-12-27T11:48:59.325Z,6.50
2022-12-27T11:51:59.781Z,6.60
2022-12-27T11:55:09.240Z,6.60
2022-12-27T11:58:05.517Z,6.60
2022-12-27T12:00:44.947Z,6.60
2022-12-27T12:03:52.243Z,6.50
2022-12-27T12:06:39.082Z,6.40
2022-12-27T12:09:28.564Z,6.50
2022-12-27T12:12:28.596Z,6.50
2022-12-27T12:15:27.984Z,6.40
2022-12-27T12:18:23.297Z,6.40
2022-12-27T12:21:23.576Z,6.40
2022-12-27T12:24:41.878Z,6.50
2022-12-27T12:27:43.724Z,6.40
2022-12-27T12:30:50.278Z,6.50
2022-12-27T12:33:43.097Z,6.40
2022-12-27T12:36:41.544Z,6.30
2022-12-27T12:39:26.224Z,6.30
2022-12-27T12:42:19.421Z,6.20
2022-12-27T12:45:34.878Z,6.10
2022-12-27T12:48:28.884Z,6.10
2022-12-27T12:51:35.923Z,6.00
2022-12-27T12:54:28.956Z,6.00
2022-12-27T12:57:27.214Z,6.10
2022-12-27T13:00:12.639Z,6.20
2022-12-27T13:03:36.659Z,6.20
2022-12-27T13:06:20.822Z,6.20
2022-12-27T13:09:02.655Z,6.20
2022-12-27T13:11:46.773Z,6.20
2022-12-27T13:14:41.905Z,6.10
2022-12-27T13:17:19.520Z,6.20
2022-12-27T13:20:08.033Z,6.10
2022-12-27T13:22:55.401Z,6.10
2022-12-27T13:25:37.967Z,6.10
2022-12-27T13:28:35.571Z,6.10
2022-12-27T13:31:15.339Z,6.00
2022-12-27T13:33:59.435Z,6.00
2022-12-27T13:36:37.657Z,5.90
2022-12-27T13:39:47.846Z,6.00
2022-12-27T13:43:01.224Z,5.90
2022-12-27T13:45:56.177Z,5.90
2022-12-27T13:49:02.632Z,5.90
2022-12-27T13:51:51.722Z,5.90
2022-12-27T13:55:14.428Z,5.80
2022-12-27T13:58:28.650Z,5.80
2022-12-27T14:01:16.629Z,5.80
2022-12-27T14:04:28.242Z,5.70
2022-12-27T14:07:27.032Z,5.70
2022-12-27T14:10:22.337Z,5.60
2022-12-27T14:12:58.590Z,5.60
2022-12-27T14:16:15.796Z,5.60
2022-12-27T14:19:05.691Z,5.60
2022-12-27T14:22:02.086Z,5.60
2022-12-27T14:25:17.249Z,5.50
2022-12-27T14:28:48.131Z,5.50
2022-12-27T14:32:26.939Z,5.50
2022-12-27T14:35:46.682Z,5.50
2022-12-27T14:39:07.674Z,5.50
2022-12-27T14:42:17.574Z,5.50
2022-12-27T14:45:26.347Z,5.40
2022-12-27T14:48:58.579Z,5.40
2022-12-27T14:52:07.214Z,5.30
2022-12-27T14:55:27.315Z,5.30
2022-12-27T14:58:21.130Z,5.20
2022-12-27T15:01:07.364Z,5.30
2022-12-27T15:03:57.931Z,5.30
2022-12-27T15:07:11.065Z,5.20
2022-12-27T15:09:51.773Z,5.10
2022-12-27T15:12:35.788Z,5.10
2022-12-27T15:15:26.510Z,5.00
2022-12-27T15:18:19.658Z,5.10
2022-12-27T15:21:07.621Z,5.10
2022-12-27T15:23:51.559Z,5.00
2022-12-27T15:26:36.147Z,5.00
2022-12-27T15:29:28.514Z,5.00
2022-12-27T15:32:16.335Z,5.00
2022-12-27T15:35:19.283Z,5.00
2022-12-27T15:38:08.908Z,4.90
2022-12-27T15:41:24.076Z,4.90
2022-12-27T15:44:25.223Z,4.90
2022-12-27T15:47:36.038Z,4.90
2022-12-27T15:50:47.566Z,4.90
2022-12-27T15:53:46.167Z,4.90
2022-12-27T15:56:41.816Z,4.90
2022-12-27T15:59:46.549Z,4.90
2022-12-27T16:02:35.589Z,4.90
2022-12-27T16:05:40.922Z,4.90
2022-12-27T16:08:40.633Z,5.00
2022-12-27T16:11:12.809Z,4.90
2022-12-27T16:13:49.888Z,4.90
2022-12-27T16:16:59.761Z,4.90
2022-12-27T16:20:04.811Z,4.90
2022-12-27T16:22:39.213Z,4.90
2022-12-27T16:25:31.344Z,4.80
2022-12-27T16:28:06.023Z,4.90
2022-12-27T16:30:49.249Z,4.90
2022-12-27T16:33:38.485Z,4.80
2022-12-27T16:36:22.110Z,4.90
2022-12-27T16:39:19.421Z,4.90
2022-12-27T16:42:06.895Z,4.80
2022-12-27T16:44:54.608Z,4.70
2022-12-27T16:48:08.773Z,4.70
2022-12-27T16:51:07.752Z,4.70
2022-12-27T16:54:06.032Z,4.70
2022-12-27T16:56:36.924Z,4.70
2022-12-27T16:59:45.365Z,4.70
2022-12-27T17:02:39.229Z,4.60
2022-12-27T17:05:39.756Z,4.60
2022-12-27T17:08:20.063Z,4.60
2022-12-27T17:11:25.690Z,4.60
2022-12-27T17:14:01.463Z,4.60
2022-12-27T17:16:37.186Z,4.60
2022-12-27T17:19:15.848Z,4.60
2022-12-27T17:21:47.227Z,4.60
2022-12-27T17:24:20.865Z,4.50
2022-12-27T17:27:10.432Z,4.50
2022-12-27T17:30:07.599Z,4.60
2022-12-27T17:33:16.878Z,4.50
2022-12-27T17:36:23.239Z,4.50
2022-12-27T17:39:18.752Z,4.50
2022-12-27T17:42:17.655Z,4.40
2022-12-27T17:45:14.214Z,4.40
2022-12-27T17:48:13.606Z,4.40
2022-12-27T17:50:45.318Z,4.40
2022-12-27T17:53:39.544Z,4.40
2022-12-27T17:56:39.785Z,4.50
2022-12-27T17:59:15.337Z,4.50
2022-12-27T18:01:48.560Z,4.60
2022-12-27T18:04:26.717Z,4.60
2022-12-27T18:06:57.314Z,4.70
2022-12-27T18:09:40.757Z,4.70
2022-12-27T18:12:21.050Z,4.70
2022-12-27T18:14:59.756Z,4.80
2022-12-27T18:17:36.570Z,4.80
2022-12-27T18:20:34.755Z,4.80
2022-12-27T18:23:17.796Z,4.80
2022-12-27T18:26:02.484Z,4.80
2022-12-27T18:28:34.497Z,4.90
2022-12-27T18:31:12.737Z,4.90
2022-12-27T18:33:44.843Z,5.00
2022-12-27T18:36:22.549Z,5.00
2022-12-27T18:38:58.846Z,5.00
2022-12-27T18:41:34.737Z,5.00
2022-12-27T18:44:04.829Z,5.00
2022-12-27T18:46:37.553Z,5.00
2022-12-27T18:49:06.785Z,5.10
2022-12-27T18:51:37.987Z,5.10
2022-12-27T18:54:24.103Z,5.10
2022-12-27T18:56:54.154Z,5.20
2022-12-27T18:59:28.694Z,5.20
2022-12-27T19:01:59.919Z,5.20
2022-12-27T19:04:31.856Z,5.20
2022-12-27T19:07:10.569Z,5.20
2022-12-27T19:09:42.646Z,5.20
2022-12-27T19:12:24.823Z,5.30
2022-12-27T19:14:55.421Z,5.20
2022-12-27T19:17:26.532Z,5.20
2022-12-27T19:20:00.907Z,5.20
2022-12-27T19:22:41.312Z,5.20
2022-12-27T19:25:25.000Z,5.20
2022-12-27T19:28:02.605Z,5.20
2022-12-27T19:30:40.070Z,5.20
2022-12-27T19:33:20.086Z,5.20
2022-12-27T19:35:48.319Z,5.10
2022-12-27T19:38:22.339Z,5.10
2022-12-27T19:40:59.540Z,5.10
2022-12-27T19:43:40.165Z,5.10
2022-12-27T19:46:12.182Z,5.10
2022-12-27T19:48:41.287Z,5.10
2022-12-27T19:51:15.876Z,5.10
2022-12-27T19:53:52.326Z,5.00
2022-12-27T19:56:23.781Z,5.00
2022-12-27T19:58:52.200Z,5.00
2022-12-27T20:01:21.839Z,4.90
2022-12-27T20:03:50.121Z,4.90
2022-12-27T20:06:22.770Z,4.90
2022-12-27T20:08:53.491Z,4.90
2022-12-27T20:11:26.376Z,4.90
2022-12-27T20:13:55.066Z,5.00
2022-12-27T20:16:24.751Z,4.90
2022-12-27T20:18:53.260Z,4.90
2022-12-27T20:21:22.514Z,5.00
2022-12-27T20:23:51.526Z,5.00
2022-12-27T20:26:23.187Z,5.00
2022-12-27T20:28:52.893Z,5.00
2022-12-27T20:31:23.932Z,5.00
2022-12-27T20:33:54.285Z,5.00
2022-12-27T20:36:23.437Z,4.90
2022-12-27T20:38:52.023Z,4.90
2022-12-27T20:41:22.833Z,4.90
2022-12-27T20:43:56.289Z,4.90
2022-12-27T20:46:27.111Z,4.80
2022-12-27T20:48:57.198Z,4.80
2022-12-27T20:51:28.193Z,4.80
2022-12-27T20:53:58.416Z,4.70
2022-12-27T20:56:26.784Z,4.70
2022-12-27T20:58:55.137Z,4.70
2022-12-27T21:01:26.820Z,4.60
2022-12-27T21:03:56.616Z,4.60
2022-12-27T21:06:29.277Z,4.70
2022-12-27T21:08:59.347Z,4.70
2022-12-27T21:11:30.985Z,4.70
2022-12-27T21:14:01.149Z,4.70
2022-12-27T21:16:33.752Z,4.70
2022-12-27T21:19:04.553Z,4.70
2022-12-27T21:21:35.525Z,4.70
2022-12-27T21:24:04.779Z,4.70
2022-12-27T21:26:36.573Z,4.70
2022-12-27T21:29:09.075Z,4.80
2022-12-27T21:31:39.552Z,4.80
2022-12-27T21:34:07.856Z,4.80
2022-12-27T21:36:38.126Z,4.80
2022-12-27T21:39:07.707Z,4.80
2022-12-27T21:41:39.227Z,4.90
2022-12-27T21:44:08.115Z,4.90
2022-12-27T21:46:40.801Z,4.90
2022-12-27T21:49:12.329Z,4.90
2022-12-27T21:51:42.457Z,5.00
2022-12-27T21:54:13.560Z,5.00
2022-12-27T21:56:41.784Z,5.10
2022-12-27T21:59:12.009Z,5.10
2022-12-27T22:01:50.224Z,5.10
2022-12-27T22:04:21.166Z,5.10
2022-12-27T22:06:49.963Z,5.20
2022-12-27T22:09:19.574Z,5.20
2022-12-27T22:11:48.990Z,5.20
2022-12-27T22:14:21.822Z,5.20
2022-12-27T22:16:54.670Z,5.20
2022-12-27T22:19:22.985Z,5.30
2022-12-27T22:21:51.206Z,5.40
2022-12-27T22:24:19.981Z,5.30
2022-12-27T22:26:49.998Z,5.30
2022-12-27T22:29:18.855Z,5.30
2022-12-27T22:31:47.252Z,5.40
2022-12-27T22:34:16.866Z,5.40
2022-12-27T22:36:45.107Z,5.50
2022-12-27T22:39:13.381Z,5.60
2022-12-27T22:41:41.644Z,5.60
2022-12-27T22:44:13.666Z,5.70
2022-12-27T22:47:15.603Z,5.70
2022-12-27T22:49:33.455Z,5.80
2022-12-27T22:52:01.679Z,5.80
2022-12-27T22:55:05.183Z,5.90
2022-12-27T22:57:18.045Z,5.90
2022-12-27T22:59:46.336Z,6.00
2022-12-27T23:02:14.676Z,6.00
2022-12-27T23:04:44.373Z,6.00
2022-12-27T23:07:12.757Z,6.00
2022-12-27T23:09:43.332Z,6.00
2022-12-27T23:12:12.647Z,6.00
2022-12-27T23:14:41.563Z,6.10
2022-12-27T23:17:09.925Z,6.10
2022-12-27T23:19:38.213Z,6.10
2022-12-27T23:22:07.931Z,6.10
2022-12-27T23:24:36.922Z,6.10
2022-12-27T23:27:05.272Z,6.10
2022-12-27T23:29:33.521Z,6.10
2022-12-27T23:32:01.872Z,6.10
2022-12-27T23:34:30.371Z,6.10
2022-12-27T23:36:58.831Z,6.30
2022-12-27T23:39:29.690Z,6.20
2022-12-27T23:41:58.185Z,6.20
2022-12-27T23:44:34.475Z,6.20
2022-12-27T23:47:05.216Z,6.20
2022-12-27T23:49:34.130Z,6.20
2022-12-27T23:52:02.576Z,6.20
2022-12-27T23:54:32.261Z,6.20
2022-12-27T23:57:22.302Z,6.20
2022-12-27T23:59:49.272Z,6.20
